Time;durP1;ratioP1;P1;durP2;ratioP2;P2;SDS_P1;SDS_P2;PMS_P1;PMS_P2;Temp;Humidity;BMP_temperature;BMP_pressure;BME280_temperature;BME280_humidity;BME280_pressure;Samples;Min_cycle;Max_cycle;Signal;HPM_P1;HPM_P2
2022/02/03 00:02:02;;;;;;;18.77;10.90;;;;;;;0.43;78.44;96974.60;1734894;82;27389;-83
2022/02/03 00:04:14;;;;;;;16.57;9.48;;;;;;;0.47;78.50;96968.83;1731307;82;25741;-83
2022/02/03 00:06:51;;;;;;;16.85;9.28;;;;;;;0.43;78.26;96978.59;1735538;82;25755;-83
2022/02/03 00:16:16;;;;;;;16.60;10.53;;;;;;;0.38;78.18;96984.85;1689784;82;25776;-83
2022/02/03 00:25:31;;;;;;;13.22;8.55;;;;;;;0.42;78.26;97010.11;1726918;83;25745;-82
2022/02/03 00:28:19;;;;;;;13.68;8.53;;;;;;;0.43;78.14;97009.12;1726858;83;27399;-82
2022/02/03 00:33:31;;;;;;;12.73;8.15;;;;;;;0.42;78.20;97026.04;1727104;83;25686;-82
2022/02/03 00:49:12;;;;;;;16.55;9.20;;;;;;;0.42;78.28;97044.63;1727108;83;25770;-83
2022/02/03 00:51:43;;;;;;;16.80;9.53;;;;;;;0.41;78.27;97053.58;1727028;81;25753;-84
2022/02/03 00:54:10;;;;;;;20.10;10.15;;;;;;;0.41;78.31;97054.91;1726540;83;27444;-82
2022/02/03 00:56:39;;;;;;;15.13;9.05;;;;;;;0.42;78.39;97058.73;1727056;83;25900;-82
2022/02/03 00:59:12;;;;;;;15.58;9.90;;;;;;;0.43;78.44;97057.75;1727251;83;25805;-82
2022/02/03 01:01:43;;;;;;;16.90;10.40;;;;;;;0.46;78.43;97065.91;1727224;83;25876;-82
2022/02/03 01:04:12;;;;;;;14.47;9.88;;;;;;;0.51;78.39;97063.59;1727236;83;26340;-83
2022/02/03 01:06:52;;;;;;;16.85;8.83;;;;;;;0.51;78.30;97064.92;1727216;83;26841;-83
2022/02/03 01:09:18;;;;;;;16.32;10.00;;;;;;;0.50;78.35;97062.77;1725381;83;25686;-82
2022/02/03 01:11:55;;;;;;;15.33;9.73;;;;;;;0.47;78.35;97059.61;1722403;83;25717;-82
2022/02/03 01:14:31;;;;;;;14.30;9.58;;;;;;;0.47;78.49;97055.62;1726748;82;25787;-83
2022/02/03 01:17:38;;;;;;;25.77;12.37;;;;;;;0.48;78.56;97063.94;1710475;82;25818;-83
2022/02/03 01:19:59;;;;;;;12.10;7.95;;;;;;;0.44;78.63;97064.73;1704240;82;28845;-82
2022/02/03 01:44:15;;;;;;;10.45;6.67;;;;;;;0.36;78.25;97069.47;1728551;83;25729;-83
2022/02/03 01:46:51;;;;;;;9.05;6.30;;;;;;;0.31;78.33;97072.28;1725448;83;27629;-82
2022/02/03 01:49:15;;;;;;;7.17;5.20;;;;;;;0.29;78.36;97080.39;1726393;83;25685;-82
2022/02/03 01:51:54;;;;;;;7.25;4.50;;;;;;;0.27;78.40;97085.52;1718189;83;25826;-82
2022/02/03 01:54:28;;;;;;;8.80;4.75;;;;;;;0.27;78.46;97087.67;1698844;84;25755;-83
2022/02/03 01:57:13;;;;;;;8.53;5.08;;;;;;;0.23;78.51;97088.99;1712596;83;25666;-82
2022/02/03 01:59:42;;;;;;;10.35;4.42;;;;;;;0.23;78.62;97096.95;1686278;83;27493;-83
2022/02/03 02:02:09;;;;;;;7.42;4.30;;;;;;;0.24;78.63;97101.25;1727419;82;25708;-83
2022/02/03 02:05:02;;;;;;;8.05;4.30;;;;;;;0.22;78.62;97110.38;1728383;82;25256;-82
2022/02/03 02:07:55;;;;;;;5.78;4.22;;;;;;;0.17;78.70;97105.52;1728611;82;25753;-83
2022/02/03 02:38:43;;;;;;;6.20;4.42;;;;;;;-0.16;79.57;97130.11;1728506;83;25980;-83
2022/02/03 02:44:08;;;;;;;6.10;4.95;;;;;;;-0.17;79.86;97127.12;1728294;83;25712;-83
2022/02/03 02:46:49;;;;;;;6.95;4.50;;;;;;;-0.18;79.83;97143.53;1727330;83;25886;-83
2022/02/03 02:49:27;;;;;;;9.00;5.40;;;;;;;-0.18;79.95;97140.03;1728068;82;27326;-83
2022/02/03 02:52:03;;;;;;;7.65;5.22;;;;;;;-0.17;79.95;97149.67;1728648;82;25706;-83
2022/02/03 02:54:53;;;;;;;7.22;5.45;;;;;;;-0.15;79.82;97153.01;1722825;83;28450;-82
2022/02/03 02:57:43;;;;;;;6.62;4.87;;;;;;;-0.19;79.82;97152.47;1719438;83;25347;-83
2022/02/03 03:01:41;;;;;;;7.20;5.40;;;;;;;-0.24;79.77;97156.58;1720834;83;25754;-83
2022/02/03 03:30:52;;;;;;;7.10;4.65;;;;;;;-0.32;79.25;97189.13;1728533;82;25809;-82
2022/02/03 03:38:18;;;;;;;8.73;5.47;;;;;;;-0.35;79.29;97218.59;1728458;83;25775;-83
2022/02/03 03:40:53;;;;;;;8.25;5.22;;;;;;;-0.43;79.35;97222.00;1728097;82;25864;-83
2022/02/03 03:43:31;;;;;;;9.03;5.85;;;;;;;-0.46;79.36;97224.94;1728099;82;25746;-83
2022/02/03 03:46:02;;;;;;;11.03;6.58;;;;;;;-0.48;79.28;97224.24;1728672;83;25828;-83
2022/02/03 03:48:34;;;;;;;8.78;5.87;;;;;;;-0.46;79.37;97230.23;1727812;82;29272;-82
2022/02/03 03:51:04;;;;;;;8.53;5.47;;;;;;;-0.45;79.37;97237.21;1728562;83;25873;-83
2022/02/03 03:53:46;;;;;;;11.45;6.40;;;;;;;-0.48;79.29;97243.29;1728503;82;25738;-83
2022/02/03 03:56:14;;;;;;;8.48;6.20;;;;;;;-0.51;79.31;97249.75;1725483;82;26288;-83
2022/02/03 04:42:15;;;;;;;7.40;5.25;;;;;;;-0.82;78.39;97315.89;1699574;84;25826;-83
2022/02/03 04:51:46;;;;;;;11.05;5.67;;;;;;;-0.87;78.48;97330.08;1699224;84;25781;-82
2022/02/03 05:09:25;;;;;;;8.13;5.60;;;;;;;-0.98;78.40;97358.89;1733449;81;25773;-82
2022/02/03 05:21:34;;;;;;;11.30;6.40;;;;;;;-1.06;78.49;97373.80;1763362;80;25919;-83
2022/02/03 05:48:22;;;;;;;86.40;48.50;;;;;;;-0.91;77.85;97402.87;1763318;80;25718;-83
2022/02/03 06:06:33;;;;;;;16.45;6.50;;;;;;;-1.34;77.19;97425.31;1763217;81;25750;-83
2022/02/03 06:16:58;;;;;;;29.63;19.42;;;;;;;-1.43;77.76;97443.31;1763290;80;25791;-83
2022/02/03 06:22:08;;;;;;;20.85;13.48;;;;;;;-1.30;77.78;97458.95;1754320;81;25769;-83
2022/02/03 06:29:42;;;;;;;12.30;7.25;;;;;;;-1.29;77.48;97464.61;1754485;80;25680;-83
2022/02/03 06:32:05;;;;;;;14.40;8.38;;;;;;;-1.27;77.38;97469.28;1754260;81;25999;-83
2022/02/03 06:34:32;;;;;;;15.18;11.80;;;;;;;-1.25;77.34;97468.18;1754796;81;25672;-83
2022/02/03 06:36:58;;;;;;;19.02;13.18;;;;;;;-1.20;77.43;97468.59;1754750;81;27349;-82
2022/02/03 06:39:28;;;;;;;22.67;16.70;;;;;;;-1.15;77.45;97479.63;1754480;81;25266;-83
2022/02/03 06:41:59;;;;;;;39.00;23.10;;;;;;;-1.12;77.41;97484.66;1754667;81;25817;-82
2022/02/03 06:44:35;;;;;;;42.35;27.77;;;;;;;-1.05;77.42;97492.05;1754710;81;25691;-82
2022/02/03 06:47:03;;;;;;;49.03;30.10;;;;;;;-1.03;77.42;97491.42;1754015;81;25666;-83
2022/02/03 06:49:47;;;;;;;19.23;12.78;;;;;;;-0.99;77.38;97498.97;1753858;81;27343;-83
2022/02/03 06:52:04;;;;;;;15.15;10.00;;;;;;;-0.97;77.22;97509.44;1746099;81;25827;-83
2022/02/03 06:54:36;;;;;;;11.50;6.10;;;;;;;-0.96;77.13;97510.59;1724523;83;25679;-83
2022/02/03 06:57:00;;;;;;;14.55;9.38;;;;;;;-0.93;77.11;97514.80;1752617;81;26578;-83
2022/02/03 06:59:31;;;;;;;13.88;8.78;;;;;;;-0.90;77.09;97518.50;1754538;81;25647;-83
2022/02/03 07:01:51;;;;;;;14.20;8.45;;;;;;;-0.91;77.03;97530.07;1753965;81;28191;-83
2022/02/03 07:04:23;;;;;;;15.05;8.70;;;;;;;-0.88;77.06;97533.78;1754417;81;25731;-83
2022/02/03 07:06:46;;;;;;;13.40;7.35;;;;;;;-0.87;77.00;97532.81;1753578;81;25813;-84
2022/02/03 07:09:13;;;;;;;11.28;6.30;;;;;;;-0.87;76.83;97532.81;1754567;81;26280;-84
2022/02/03 07:11:40;;;;;;;12.63;6.35;;;;;;;-0.86;76.75;97534.48;1754603;81;25652;-83
2022/02/03 07:14:09;;;;;;;11.18;6.37;;;;;;;-0.87;76.69;97531.48;1754596;81;27429;-84
2022/02/03 07:16:45;;;;;;;12.07;5.70;;;;;;;-0.85;76.75;97532.19;1754434;81;25768;-84
2022/02/03 07:19:04;;;;;;;10.80;6.10;;;;;;;-0.84;76.58;97532.52;1754145;81;25834;-83
2022/02/03 07:21:31;;;;;;;9.48;5.08;;;;;;;-0.85;76.48;97536.17;1754726;81;25725;-83
2022/02/03 07:23:58;;;;;;;7.95;5.08;;;;;;;-0.86;76.38;97539.79;1754664;81;25649;-83
2022/02/03 07:26:24;;;;;;;14.40;5.67;;;;;;;-0.85;76.30;97537.49;1754708;81;27591;-83
2022/02/03 07:28:51;;;;;;;11.28;4.92;;;;;;;-0.85;76.18;97542.80;1754550;81;25757;-83
2022/02/03 07:31:17;;;;;;;8.23;5.03;;;;;;;-0.81;76.18;97550.80;1743346;81;25705;-83
2022/02/03 07:33:44;;;;;;;13.48;6.37;;;;;;;-0.80;76.04;97555.13;1752595;81;25673;-84
2022/02/03 07:36:11;;;;;;;17.57;8.98;;;;;;;-0.81;75.99;97553.45;1721583;83;25712;-83
2022/02/03 07:38:39;;;;;;;12.33;8.08;;;;;;;-0.86;75.92;97554.36;1715460;82;28017;-83
2022/02/03 07:41:05;;;;;;;14.73;7.70;;;;;;;-0.86;75.99;97557.02;1725029;83;25773;-84
2022/02/03 07:43:32;;;;;;;11.78;7.08;;;;;;;-0.84;76.02;97559.02;1725105;83;25261;-84
2022/02/03 07:45:59;;;;;;;12.47;7.42;;;;;;;-0.82;75.94;97558.39;1725097;83;26434;-83
2022/02/03 07:48:25;;;;;;;17.00;8.10;;;;;;;-0.83;75.88;97556.72;1725056;83;25723;-84
2022/02/03 07:50:52;;;;;;;11.95;7.22;;;;;;;-0.81;75.93;97556.09;1725073;83;27364;-83
2022/02/03 07:53:19;;;;;;;15.10;8.40;;;;;;;-0.77;75.93;97560.16;1724992;83;25778;-83
2022/02/03 07:55:47;;;;;;;13.38;7.72;;;;;;;-0.80;75.90;97566.56;1725041;83;25763;-84
2022/02/03 07:58:13;;;;;;;71.87;36.75;;;;;;;-0.74;75.96;97560.73;1725067;83;26541;-83
2022/02/03 08:00:40;;;;;;;85.15;44.60;;;;;;;-0.64;76.02;97566.05;1724945;83;25754;-84
2022/02/03 08:03:11;;;;;;;78.17;41.75;;;;;;;-0.57;76.03;97565.83;1725101;83;27426;-84
2022/02/03 08:05:36;;;;;;;37.98;22.48;;;;;;;-0.48;76.01;97577.41;1724317;83;25774;-83
2022/02/03 08:08:27;;;;;;;23.50;12.03;;;;;;;-0.44;75.99;97575.68;1725029;83;25793;-82
2022/02/03 08:10:53;;;;;;;15.30;8.43;;;;;;;-0.52;75.69;97580.01;1724228;83;25711;-84
2022/02/03 08:13:30;;;;;;;15.15;8.45;;;;;;;-0.55;75.38;97574.48;1753470;81;25809;-84
2022/02/03 08:16:01;;;;;;;14.38;8.48;;;;;;;-0.51;75.37;97569.75;1752990;81;28331;-84
2022/02/03 08:18:21;;;;;;;35.03;19.55;;;;;;;-0.47;75.33;97576.44;1753110;81;26287;-84
2022/02/03 08:20:53;;;;;;;29.10;16.32;;;;;;;-0.48;75.23;97576.92;1757078;81;25771;-84
2022/02/03 08:26:11;;;;;;;12.37;7.95;;;;;;;-0.50;74.99;97582.04;1757269;81;25759;-84
2022/02/03 08:28:43;;;;;;;14.25;7.42;;;;;;;-0.50;75.02;97578.91;1754159;81;27384;-83
2022/02/03 08:31:04;;;;;;;12.87;6.47;;;;;;;-0.45;75.03;97577.14;1728085;82;25783;-84
2022/02/03 08:33:30;;;;;;;14.85;6.72;;;;;;;-0.42;74.92;97578.20;1757042;81;25693;-83
2022/02/03 08:36:01;;;;;;;10.35;5.58;;;;;;;-0.38;74.93;97567.67;1756959;81;25734;-85
2022/02/03 08:39:05;;;;;;;14.40;7.03;;;;;;;-0.40;74.79;97563.83;1729883;82;25720;-83
2022/02/03 08:41:04;;;;;;;10.82;5.87;;;;;;;-0.40;74.84;97563.83;1707543;83;27481;-83
2022/02/03 08:43:36;;;;;;;12.58;6.08;;;;;;;-0.33;74.90;97565.91;1729862;82;25715;-83
2022/02/03 08:46:06;;;;;;;11.45;6.55;;;;;;;-0.29;74.94;97563.33;1757386;81;25743;-84
2022/02/03 08:48:34;;;;;;;25.75;12.90;;;;;;;-0.22;74.97;97560.45;1757239;81;25772;-84
2022/02/03 08:51:03;;;;;;;56.75;27.65;;;;;;;-0.15;74.83;97562.42;1757225;81;25764;-83
2022/02/03 08:53:35;;;;;;;64.10;34.20;;;;;;;-0.07;74.63;97559.05;1757233;81;28374;-83
2022/02/03 08:59:04;;;;;;;19.10;10.43;;;;;;;-0.01;74.42;97550.55;1757173;81;25745;-84
2022/02/03 09:50:10;;;;;;;23.83;9.60;;;;;;;0.23;74.06;97560.20;1757289;81;26317;-83
2022/02/03 10:00:49;;;;;;;44.05;18.50;;;;;;;0.57;73.77;97531.80;1757292;81;27457;-82
2022/02/03 10:03:19;;;;;;;31.90;14.33;;;;;;;0.67;73.69;97537.90;1755726;81;25287;-82
2022/02/03 10:06:01;;;;;;;40.95;17.02;;;;;;;0.73;73.47;97530.66;1756543;81;25979;-82
2022/02/03 10:08:25;;;;;;;22.35;10.58;;;;;;;0.79;73.43;97528.75;1756113;81;25761;-81
2022/02/03 10:11:15;;;;;;;16.67;9.75;;;;;;;0.86;73.37;97525.84;1755430;81;25792;-82
2022/02/03 10:13:58;;;;;;;18.62;8.73;;;;;;;0.84;73.11;97522.52;1726544;82;27667;-81
2022/02/03 10:16:28;;;;;;;12.60;6.58;;;;;;;0.80;73.05;97523.78;1727053;82;25792;-80
2022/02/03 10:19:19;;;;;;;15.45;7.42;;;;;;;0.89;73.09;97518.91;1724703;82;25284;-81
2022/02/03 10:21:50;;;;;;;16.52;8.05;;;;;;;0.99;73.29;97522.83;1722175;83;25977;-81
2022/02/03 10:24:19;;;;;;;17.73;9.08;;;;;;;1.05;73.12;97516.44;1722462;82;25659;-80
2022/02/03 10:26:52;;;;;;;16.93;8.78;;;;;;;1.11;73.13;97524.78;1722575;83;27509;-81
2022/02/03 10:29:36;;;;;;;14.68;7.70;;;;;;;1.13;73.02;97514.84;1722582;82;25955;-80
2022/02/03 10:31:56;;;;;;;13.83;7.17;;;;;;;1.18;72.93;97509.92;1679091;85;25765;-80
2022/02/03 10:34:32;;;;;;;19.42;7.33;;;;;;;1.19;72.76;97508.94;1680057;85;25839;-80
2022/02/03 10:45:07;;;;;;;18.45;9.10;;;;;;;1.42;72.56;97500.37;1701777;84;26327;-80
2022/02/03 10:50:19;;;;;;;22.40;6.85;;;;;;;1.66;72.30;97504.23;1701652;84;25649;-81
2022/02/03 10:55:32;;;;;;;11.35;6.28;;;;;;;2.03;72.09;97498.70;1640396;85;25909;-81
2022/02/03 10:58:38;;;;;;;15.68;6.75;;;;;;;2.19;71.95;97482.81;1675949;85;25821;-81
2022/02/03 11:08:15;;;;;;;13.68;6.70;;;;;;;3.31;71.26;97485.27;1669306;85;25789;-82
2022/02/03 11:10:39;;;;;;;13.90;6.85;;;;;;;3.51;70.80;97486.63;1668500;85;25794;-81
2022/02/03 11:13:06;;;;;;;15.28;7.55;;;;;;;3.69;70.14;97493.16;1669328;85;25883;-82
2022/02/03 11:15:34;;;;;;;15.03;7.05;;;;;;;3.77;70.05;97485.98;1669080;85;25718;-82
2022/02/03 11:18:06;;;;;;;17.10;7.47;;;;;;;3.83;69.65;97487.16;1669272;85;27555;-81
2022/02/03 11:20:37;;;;;;;14.50;6.93;;;;;;;3.92;68.81;97478.97;1685970;84;25790;-82
2022/02/03 11:36:14;;;;;;;16.95;7.75;;;;;;;4.46;67.87;97461.86;1700627;84;25818;-80
2022/02/03 11:41:47;;;;;;;11.13;5.60;;;;;;;4.21;67.96;97458.91;1700948;84;25416;-80
2022/02/03 11:46:50;;;;;;;12.88;5.78;;;;;;;3.92;67.58;97468.30;1686180;84;25854;-81
2022/02/03 11:49:43;;;;;;;12.65;5.42;;;;;;;3.95;67.52;97473.30;1692280;84;25899;-82
2022/02/03 11:54:44;;;;;;;12.47;5.58;;;;;;;4.03;67.02;97459.59;1716632;83;25842;-83
2022/02/03 11:57:30;;;;;;;10.93;5.87;;;;;;;4.10;67.13;97465.95;1712084;82;27569;-86
2022/02/03 12:06:20;;;;;;;11.60;6.60;;;;;;;3.99;66.48;97463.93;1716326;83;26982;-83
2022/02/03 12:21:53;;;;;;;9.45;5.00;;;;;;;4.16;65.74;97451.89;1721301;83;25860;-83
2022/02/03 12:26:59;;;;;;;11.43;4.45;;;;;;;4.22;65.67;97447.22;1707796;83;25805;-82
2022/02/03 12:29:47;;;;;;;11.33;5.65;;;;;;;4.23;65.28;97447.52;1707794;83;25824;-83
2022/02/03 12:40:08;;;;;;;12.28;6.15;;;;;;;4.56;65.06;97446.45;1706909;83;25773;-83
2022/02/03 12:45:17;;;;;;;12.93;6.53;;;;;;;4.77;64.86;97446.36;1726661;82;25860;-84
2022/02/03 12:47:43;;;;;;;13.08;6.35;;;;;;;4.91;64.64;97454.48;1725486;82;25963;-84
2022/02/03 12:50:16;;;;;;;13.72;6.75;;;;;;;4.96;64.44;97457.95;1726293;82;27366;-84
2022/02/03 12:52:45;;;;;;;15.43;6.85;;;;;;;5.05;64.45;97455.09;1729716;82;25677;-83
2022/02/03 12:55:30;;;;;;;12.68;6.42;;;;;;;5.16;64.15;97453.86;1730316;82;25890;-84
2022/02/03 12:58:02;;;;;;;14.90;6.78;;;;;;;5.13;63.99;97448.84;1701181;83;26013;-84
2022/02/03 13:00:40;;;;;;;11.53;5.37;;;;;;;5.27;64.17;97444.59;1725759;82;25793;-84
2022/02/03 13:03:03;;;;;;;11.83;4.70;;;;;;;5.37;63.79;97444.68;1726280;82;28254;-83
2022/02/03 13:05:34;;;;;;;13.35;4.90;;;;;;;5.32;63.60;97444.87;1725512;82;25757;-84
2022/02/03 13:08:07;;;;;;;10.40;5.05;;;;;;;5.16;63.07;97445.83;1726970;83;26046;-84
2022/02/03 13:10:38;;;;;;;9.83;4.72;;;;;;;4.97;63.13;97447.59;1726902;83;25746;-83
2022/02/03 13:13:24;;;;;;;11.08;5.58;;;;;;;4.99;63.29;97450.42;1687822;84;25683;-84
2022/02/03 13:15:47;;;;;;;10.88;4.87;;;;;;;5.08;63.18;97449.86;1712506;82;27420;-83
2022/02/03 13:18:23;;;;;;;18.40;6.60;;;;;;;5.01;62.95;97444.39;1699207;84;25906;-83
2022/02/03 13:20:59;;;;;;;16.90;6.93;;;;;;;4.97;62.87;97444.41;1729972;82;25806;-83
2022/02/03 13:23:21;;;;;;;16.30;6.50;;;;;;;4.92;62.72;97446.80;1728175;82;25840;-83
2022/02/03 13:26:03;;;;;;;10.13;5.40;;;;;;;4.94;62.77;97450.64;1669765;85;25759;-83
2022/02/03 13:29:12;;;;;;;15.23;6.10;;;;;;;4.85;62.58;97448.48;1680132;85;26529;-84
2022/02/03 13:31:02;;;;;;;15.63;6.25;;;;;;;4.83;62.46;97451.02;1650877;85;25834;-83
2022/02/03 13:33:33;;;;;;;11.88;5.12;;;;;;;4.82;62.37;97446.69;1674738;85;25822;-84
2022/02/03 13:36:03;;;;;;;15.18;6.08;;;;;;;4.76;62.24;97438.00;1681972;85;25879;-84
2022/02/03 13:41:20;;;;;;;9.63;4.92;;;;;;;4.63;62.18;97430.03;1726748;82;28267;-84
2022/02/03 13:43:46;;;;;;;14.23;6.65;;;;;;;4.50;61.86;97424.40;1729165;81;25868;-84
2022/02/03 13:46:32;;;;;;;11.33;6.05;;;;;;;4.37;62.20;97424.11;1732699;82;25815;-85
2022/02/03 13:49:00;;;;;;;12.30;5.78;;;;;;;4.25;62.01;97421.47;1695411;83;26209;-85
2022/02/03 13:51:30;;;;;;;16.32;7.45;;;;;;;4.05;62.09;97417.52;1672005;84;25358;-86
2022/02/03 14:11:04;;;;;;;22.00;10.55;;;;;;;3.48;62.83;97406.92;1632890;85;25951;-84
2022/02/03 14:16:17;;;;;;;15.80;8.20;;;;;;;3.42;63.03;97403.56;1678589;85;25763;-84
2022/02/03 14:19:12;;;;;;;17.15;8.53;;;;;;;3.28;63.01;97403.72;1725177;83;26412;-84
2022/02/03 14:21:24;;;;;;;15.83;8.35;;;;;;;3.35;63.29;97407.91;1722418;82;27395;-84
2022/02/03 14:29:22;;;;;;;20.90;10.90;;;;;;;3.42;63.51;97400.89;1724576;83;25791;-84
2022/02/03 14:31:53;;;;;;;16.95;8.05;;;;;;;3.44;63.28;97401.06;1694042;84;25710;-83
2022/02/03 14:34:23;;;;;;;15.78;7.90;;;;;;;3.32;63.33;97400.23;1724427;83;27089;-84
2022/02/03 14:36:47;;;;;;;20.52;9.48;;;;;;;3.34;63.63;97400.41;1692523;84;25765;-83
2022/02/03 14:39:17;;;;;;;17.98;9.40;;;;;;;3.35;63.50;97402.08;1724450;83;25749;-83
2022/02/03 14:41:46;;;;;;;16.73;9.10;;;;;;;3.32;63.56;97391.73;1693423;84;26409;-83
2022/02/03 14:44:15;;;;;;;28.83;11.10;;;;;;;3.32;63.69;97397.06;1724593;83;25721;-84
2022/02/03 14:46:42;;;;;;;22.55;9.50;;;;;;;3.33;63.87;97397.90;1685379;84;27548;-83
2022/02/03 14:49:09;;;;;;;22.10;9.15;;;;;;;3.45;63.92;97396.57;1709729;83;25899;-83
2022/02/03 14:52:12;;;;;;;18.95;8.85;;;;;;;3.46;63.79;97394.23;1709848;83;25785;-82
2022/02/03 14:59:38;;;;;;;19.30;9.20;;;;;;;3.50;64.33;97391.58;1710165;83;27361;-83
2022/02/03 15:02:08;;;;;;;23.47;12.75;;;;;;;3.54;64.23;97390.22;1710080;83;26404;-83
2022/02/03 15:04:38;;;;;;;47.90;21.15;;;;;;;3.60;64.13;97386.89;1706482;84;25827;-85
2022/02/03 15:07:05;;;;;;;28.10;12.98;;;;;;;3.61;64.23;97393.41;1706850;83;25771;-84
2022/02/03 15:12:23;;;;;;;42.48;16.77;;;;;;;3.34;63.56;97384.40;1706827;84;26907;-84
2022/02/03 15:14:40;;;;;;;20.30;9.85;;;;;;;3.31;63.98;97382.05;1703881;84;26266;-85
2022/02/03 15:17:05;;;;;;;25.32;11.78;;;;;;;3.29;63.82;97383.21;1706700;84;25704;-88
2022/02/03 15:19:32;;;;;;;26.77;13.60;;;;;;;3.24;63.78;97380.56;1706979;84;25776;-86
2022/02/03 15:21:59;;;;;;;35.30;16.55;;;;;;;3.17;63.89;97370.70;1701087;84;25877;-84
2022/02/03 15:24:25;;;;;;;37.80;18.05;;;;;;;3.02;64.00;97370.52;1698157;84;27624;-85
2022/02/03 15:26:52;;;;;;;34.15;16.12;;;;;;;2.98;64.24;97367.87;1697981;84;25844;-85
2022/02/03 15:29:19;;;;;;;30.32;16.30;;;;;;;2.90;64.16;97368.67;1698126;84;26378;-86
2022/02/03 15:31:45;;;;;;;34.43;16.37;;;;;;;2.82;64.45;97365.17;1697775;84;26026;-87
2022/02/03 15:34:17;;;;;;;34.00;17.50;;;;;;;2.73;64.66;97368.33;1698022;84;25819;-84
2022/02/03 15:36:47;;;;;;;35.50;17.62;;;;;;;2.61;64.92;97370.13;1697241;84;27407;-86
2022/02/03 15:39:11;;;;;;;36.60;16.95;;;;;;;2.42;64.94;97374.71;1691386;84;25723;-86
2022/02/03 15:41:39;;;;;;;30.40;14.53;;;;;;;2.27;65.19;97375.02;1680859;85;26453;-84
2022/02/03 15:44:06;;;;;;;38.02;18.45;;;;;;;2.21;65.31;97371.64;1697775;83;25680;-82
2022/02/03 15:46:39;;;;;;;27.27;14.60;;;;;;;2.13;65.45;97376.44;1673131;85;25780;-84
2022/02/03 15:49:15;;;;;;;28.32;14.70;;;;;;;2.04;65.55;97377.91;1695791;84;27481;-84
2022/02/03 16:02:27;;;;;;;28.85;14.78;;;;;;;1.90;65.84;97374.49;1698122;84;27425;-83
2022/02/03 16:18:20;;;;;;;37.67;20.05;;;;;;;1.65;66.24;97371.69;1698052;84;25305;-84
2022/02/03 16:20:55;;;;;;;37.88;19.05;;;;;;;1.65;66.12;97374.84;1665278;85;26399;-83
2022/02/03 16:50:26;;;;;;;46.95;20.12;;;;;;;1.01;66.65;97370.19;1665062;84;25916;-83
2022/02/03 16:52:51;;;;;;;44.03;20.12;;;;;;;0.94;66.60;97368.30;1693044;84;25678;-83
2022/02/03 16:55:21;;;;;;;55.55;22.87;;;;;;;0.80;66.69;97370.99;1699855;84;28247;-83
2022/02/03 16:57:48;;;;;;;61.85;26.52;;;;;;;0.77;66.80;97365.97;1693689;84;25760;-84
2022/02/03 17:00:16;;;;;;;72.35;38.10;;;;;;;0.75;66.89;97367.11;1699796;84;25307;-83
2022/02/03 17:02:43;;;;;;;78.80;33.08;;;;;;;0.63;66.92;97366.48;1694005;84;25774;-83
2022/02/03 17:05:12;;;;;;;93.50;38.60;;;;;;;0.61;67.07;97373.28;1699901;84;25772;-85
2022/02/03 17:07:38;;;;;;;109.20;42.10;;;;;;;0.59;67.15;97367.80;1694001;84;27385;-83
2022/02/03 17:10:07;;;;;;;114.85;44.45;;;;;;;0.62;67.22;97368.80;1699953;84;25770;-83
2022/02/03 17:12:33;;;;;;;117.90;44.08;;;;;;;0.59;67.19;97363.81;1693953;84;25818;-84
2022/02/03 17:15:00;;;;;;;89.97;37.67;;;;;;;0.54;67.21;97358.10;1698368;84;25841;-84
2022/02/03 17:17:26;;;;;;;78.42;35.45;;;;;;;0.49;67.21;97355.88;1696476;84;25809;-83
2022/02/03 17:19:53;;;;;;;67.85;28.62;;;;;;;0.45;67.29;97359.01;1693951;84;27436;-83
2022/02/03 17:22:26;;;;;;;59.50;27.75;;;;;;;0.45;67.35;97357.68;1697741;84;25721;-85
2022/02/03 17:25:00;;;;;;;75.57;33.98;;;;;;;0.45;67.38;97362.98;1694973;84;25745;-84
2022/02/03 17:27:23;;;;;;;92.05;39.35;;;;;;;0.43;67.38;97363.63;1691672;84;25708;-84
2022/02/03 17:30:02;;;;;;;105.12;48.42;;;;;;;0.41;67.41;97370.41;1695862;84;25848;-84
2022/02/03 17:44:52;;;;;;;97.97;45.67;;;;;;;0.41;67.47;97372.23;1692757;84;28482;-84
2022/02/03 17:52:17;;;;;;;202.50;74.42;;;;;;;0.21;67.66;97360.89;1696090;84;27617;-83
2022/02/03 18:10:11;;;;;;;77.37;36.77;;;;;;;-0.29;67.98;97334.72;1695972;84;25757;-82
2022/02/03 18:37:15;;;;;;;255.47;106.63;;;;;;;-0.98;68.78;97318.31;1673048;85;26000;-82
2022/02/03 18:50:35;;;;;;;177.55;69.90;;;;;;;-1.14;69.22;97317.07;1670816;85;25887;-82
2022/02/03 18:53:09;;;;;;;181.93;64.92;;;;;;;-1.21;69.25;97312.48;1673922;84;27473;-83
2022/02/03 18:55:40;;;;;;;149.30;56.20;;;;;;;-1.24;69.39;97309.63;1683126;85;25735;-83
2022/02/03 18:58:28;;;;;;;140.45;54.10;;;;;;;-1.19;69.48;97311.83;1682965;85;25794;-83
2022/02/03 19:01:06;;;;;;;174.95;69.70;;;;;;;-1.17;69.53;97309.88;1681650;85;25758;-83
2022/02/03 19:14:35;;;;;;;196.85;86.08;;;;;;;-1.10;69.43;97299.09;1684293;85;25745;-83
2022/02/03 20:05:36;;;;;;;246.68;102.05;;;;;;;-1.37;70.43;97249.49;1684349;85;25718;-82
2022/02/03 20:08:10;;;;;;;213.77;89.37;;;;;;;-1.35;70.62;97245.38;1683777;85;26336;-83
2022/02/03 20:10:38;;;;;;;227.90;81.30;;;;;;;-1.30;70.75;97244.45;1683151;85;25715;-83
2022/02/03 20:13:01;;;;;;;180.42;77.58;;;;;;;-1.30;70.82;97238.67;1683573;85;27412;-82
2022/02/03 20:15:28;;;;;;;175.30;74.17;;;;;;;-1.32;70.92;97231.34;1684298;84;25719;-82
2022/02/03 20:17:55;;;;;;;155.35;60.70;;;;;;;-1.33;70.99;97228.87;1684486;85;25644;-83
2022/02/03 20:20:22;;;;;;;194.13;81.05;;;;;;;-1.30;71.06;97225.91;1684301;85;25813;-83
2022/02/03 20:22:50;;;;;;;195.90;82.20;;;;;;;-1.30;71.15;97220.13;1683466;84;25843;-83
2022/02/03 20:25:17;;;;;;;167.70;69.70;;;;;;;-1.33;71.12;97213.82;1681284;84;27561;-83
2022/02/03 20:27:44;;;;;;;164.65;70.22;;;;;;;-1.31;71.14;97219.78;1681584;85;25724;-83
2022/02/03 20:30:12;;;;;;;159.75;67.27;;;;;;;-1.30;71.13;97206.89;1681473;85;25726;-83
2022/02/03 20:32:39;;;;;;;106.00;43.58;;;;;;;-1.26;71.14;97206.13;1681554;85;26335;-83
2022/02/03 20:35:06;;;;;;;129.65;56.28;;;;;;;-1.21;71.17;97201.25;1681577;84;25778;-83
2022/02/03 20:37:33;;;;;;;104.10;39.42;;;;;;;-1.16;71.20;97202.47;1681289;85;27375;-83
2022/02/03 20:40:00;;;;;;;145.70;53.42;;;;;;;-1.13;71.26;97188.11;1681504;85;25730;-83
2022/02/03 20:42:26;;;;;;;155.75;50.85;;;;;;;-1.07;71.33;97186.68;1681591;85;25731;-83
2022/02/03 20:44:53;;;;;;;126.38;42.62;;;;;;;-1.00;71.32;97189.12;1681501;85;25719;-83
2022/02/03 20:47:20;;;;;;;98.58;37.67;;;;;;;-0.95;71.31;97184.20;1681704;85;25727;-83
2022/02/03 20:49:46;;;;;;;112.80;40.58;;;;;;;-0.90;71.24;97176.66;1681632;84;27630;-83
2022/02/03 20:52:13;;;;;;;103.17;46.37;;;;;;;-0.85;71.25;97178.41;1681530;85;25941;-84
2022/02/03 20:54:39;;;;;;;84.58;40.05;;;;;;;-0.81;71.22;97177.11;1681571;85;25869;-83
2022/02/03 20:57:06;;;;;;;76.62;33.95;;;;;;;-0.77;71.22;97178.49;1681654;85;26532;-83
2022/02/03 20:59:55;;;;;;;117.33;48.08;;;;;;;-0.72;71.18;97177.55;1681553;85;25826;-83
2022/02/03 21:02:09;;;;;;;156.12;62.33;;;;;;;-0.67;71.15;97181.09;1677872;85;27487;-83
2022/02/03 21:04:55;;;;;;;297.42;101.50;;;;;;;-0.66;71.15;97175.65;1680771;85;25802;-83
2022/02/03 21:07:01;;;;;;;122.42;49.10;;;;;;;-0.67;71.14;97169.16;1677824;84;25282;-84
2022/02/03 21:09:27;;;;;;;196.10;71.05;;;;;;;-0.63;71.08;97169.22;1681364;85;25836;-83
2022/02/03 21:11:54;;;;;;;94.85;37.73;;;;;;;-0.60;71.05;97160.46;1681860;84;25783;-83
2022/02/03 21:14:20;;;;;;;79.40;31.80;;;;;;;-0.54;71.04;97159.05;1681790;85;28429;-83
2022/02/03 21:16:51;;;;;;;100.60;35.15;;;;;;;-0.52;70.92;97162.39;1681597;84;25711;-84
2022/02/03 21:19:16;;;;;;;106.52;36.70;;;;;;;-0.48;70.93;97167.23;1681314;85;25859;-82
2022/02/03 21:21:42;;;;;;;107.10;35.33;;;;;;;-0.45;70.93;97162.97;1681638;84;25736;-83
2022/02/03 21:24:09;;;;;;;94.80;36.45;;;;;;;-0.40;70.88;97166.02;1683258;85;25828;-83
2022/02/03 21:26:39;;;;;;;58.63;26.07;;;;;;;-0.37;70.88;97163.56;1684479;84;27429;-83
2022/02/03 21:29:05;;;;;;;82.75;31.23;;;;;;;-0.37;70.77;97164.40;1683899;84;25722;-83
2022/02/03 21:31:32;;;;;;;76.82;30.55;;;;;;;-0.34;70.75;97156.61;1684525;85;25730;-84
2022/02/03 21:33:59;;;;;;;63.00;26.95;;;;;;;-0.33;70.71;97157.45;1684447;85;25761;-84
2022/02/03 21:36:33;;;;;;;51.35;22.52;;;;;;;-0.33;70.70;97153.47;1684447;84;26322;-85
2022/02/03 21:38:54;;;;;;;37.85;16.97;;;;;;;-0.33;70.64;97154.80;1683305;85;27405;-84
2022/02/03 21:41:20;;;;;;;35.75;14.18;;;;;;;-0.29;70.60;97157.50;1684335;85;25715;-85